sensor_id;sensor_type;location;lat;lon;timestamp;pressure;altitude;pressure_sealevel;temperature;humidity
14383;BME280;7275;50.328;8.720;2023-02-14T00:02:27;101718.63;;;9.32;37.28
14383;BME280;7275;50.328;8.720;2023-02-14T00:04:55;101726.56;;;9.30;37.21
14383;BME280;7275;50.328;8.720;2023-02-14T00:07:22;101728.28;;;9.28;37.08
14383;BME280;7275;50.328;8.720;2023-02-14T00:09:50;101730.94;;;9.25;37.02
14383;BME280;7275;50.328;8.720;2023-02-14T00:12:19;101728.28;;;9.25;37.38
14383;BME280;7275;50.328;8.720;2023-02-14T00:14:46;101730.06;;;9.25;37.15
14383;BME280;7275;50.328;8.720;2023-02-14T00:17:32;101723.03;;;9.24;37.31
14383;BME280;7275;50.328;8.720;2023-02-14T00:19:59;101726.53;;;9.24;37.16
14383;BME280;7275;50.328;8.720;2023-02-14T00:22:27;101727.44;;;9.22;37.11
14383;BME280;7275;50.328;8.720;2023-02-14T00:24:54;101722.13;;;9.19;37.22
14383;BME280;7275;50.328;8.720;2023-02-14T00:27:24;101723.00;;;9.16;37.21
14383;BME280;7275;50.328;8.720;2023-02-14T00:29:52;101719.47;;;9.10;37.36
14383;BME280;7275;50.328;8.720;2023-02-14T00:32:21;101723.88;;;9.05;37.29
14383;BME280;7275;50.328;8.720;2023-02-14T00:34:49;101721.22;;;9.02;37.57
14383;BME280;7275;50.328;8.720;2023-02-14T00:37:35;101715.94;;;8.97;37.75
14383;BME280;7275;50.328;8.720;2023-02-14T00:40:45;101722.97;;;8.89;37.36
14383;BME280;7275;50.328;8.720;2023-02-14T00:43:14;101729.09;;;8.86;37.75
14383;BME280;7275;50.328;8.720;2023-02-14T00:45:41;101722.09;;;8.85;37.75
14383;BME280;7275;50.328;8.720;2023-02-14T00:48:09;101721.19;;;8.85;37.56
14383;BME280;7275;50.328;8.720;2023-02-14T00:50:36;101724.72;;;8.84;37.82
14383;BME280;7275;50.328;8.720;2023-02-14T00:53:04;101722.06;;;8.87;37.62
14383;BME280;7275;50.328;8.720;2023-02-14T00:55:32;101715.91;;;8.86;37.73
14383;BME280;7275;50.328;8.720;2023-02-14T00:57:59;101723.81;;;8.86;37.72
14383;BME280;7275;50.328;8.720;2023-02-14T01:00:28;101713.28;;;8.85;37.95
14383;BME280;7275;50.328;8.720;2023-02-14T01:02:56;101722.06;;;8.82;37.92
14383;BME280;7275;50.328;8.720;2023-02-14T01:05:24;101722.06;;;8.79;37.70
14383;BME280;7275;50.328;8.720;2023-02-14T01:07:51;101715.94;;;8.76;38.00
14383;BME280;7275;50.328;8.720;2023-02-14T01:10:19;101728.22;;;8.75;37.98
14383;BME280;7275;50.328;8.720;2023-02-14T01:12:46;101723.81;;;8.74;38.04
14383;BME280;7275;50.328;8.720;2023-02-14T01:15:14;101718.56;;;8.76;38.09
14383;BME280;7275;50.328;8.720;2023-02-14T01:17:43;101719.44;;;8.73;38.14
14383;BME280;7275;50.328;8.720;2023-02-14T01:20:11;101719.44;;;8.73;38.04
14383;BME280;7275;50.328;8.720;2023-02-14T01:22:40;101716.78;;;8.69;38.02
14383;BME280;7275;50.328;8.720;2023-02-14T01:25:07;101719.38;;;8.66;38.20
14383;BME280;7275;50.328;8.720;2023-02-14T01:27:35;101717.66;;;8.65;38.24
14383;BME280;7275;50.328;8.720;2023-02-14T01:30:03;101722.91;;;8.62;38.15
14383;BME280;7275;50.328;8.720;2023-02-14T01:32:32;101715.88;;;8.55;38.06
14383;BME280;7275;50.328;8.720;2023-02-14T01:35:01;101720.25;;;8.53;38.31
14383;BME280;7275;50.328;8.720;2023-02-14T01:37:30;101723.75;;;8.50;38.41
14383;BME280;7275;50.328;8.720;2023-02-14T01:39:57;101725.50;;;8.51;38.56
14383;BME280;7275;50.328;8.720;2023-02-14T01:42:25;101729.00;;;8.53;38.52
14383;BME280;7275;50.328;8.720;2023-02-14T01:44:59;101722.88;;;8.54;38.42
14383;BME280;7275;50.328;8.720;2023-02-14T01:47:28;101728.16;;;8.53;38.47
14383;BME280;7275;50.328;8.720;2023-02-14T01:50:01;101724.63;;;8.54;38.42
14383;BME280;7275;50.328;8.720;2023-02-14T01:52:32;101716.72;;;8.54;38.28
14383;BME280;7275;50.328;8.720;2023-02-14T01:55:05;101720.25;;;8.53;38.45
14383;BME280;7275;50.328;8.720;2023-02-14T01:57:37;101725.53;;;8.54;38.30
14383;BME280;7275;50.328;8.720;2023-02-14T02:00:07;101722.00;;;8.55;38.42
14383;BME280;7275;50.328;8.720;2023-02-14T02:02:53;101714.06;;;8.49;38.30
14383;BME280;7275;50.328;8.720;2023-02-14T02:05:23;101710.56;;;8.44;38.38
14383;BME280;7275;50.328;8.720;2023-02-14T02:07:54;101721.94;;;8.43;38.39
14383;BME280;7275;50.328;8.720;2023-02-14T02:10:23;101714.03;;;8.39;38.34
14383;BME280;7275;50.328;8.720;2023-02-14T02:12:52;101714.91;;;8.36;38.38
14383;BME280;7275;50.328;8.720;2023-02-14T02:15:22;101712.25;;;8.33;38.63
14383;BME280;7275;50.328;8.720;2023-02-14T02:17:59;101717.53;;;8.32;38.64
14383;BME280;7275;50.328;8.720;2023-02-14T02:21:03;101713.09;;;8.26;38.75
14383;BME280;7275;50.328;8.720;2023-02-14T02:27:16;101706.84;;;8.12;38.57
14383;BME280;7275;50.328;8.720;2023-02-14T02:30:14;101698.06;;;8.10;38.74
14383;BME280;7275;50.328;8.720;2023-02-14T02:33:09;101701.59;;;8.09;38.80
14383;BME280;7275;50.328;8.720;2023-02-14T02:35:55;101704.22;;;8.09;38.85
14383;BME280;7275;50.328;8.720;2023-02-14T02:38:40;101695.44;;;8.07;38.77
14383;BME280;7275;50.328;8.720;2023-02-14T02:41:16;101696.28;;;8.04;38.94
14383;BME280;7275;50.328;8.720;2023-02-14T02:43:53;101692.78;;;8.02;38.94
14383;BME280;7275;50.328;8.720;2023-02-14T02:46:24;101695.41;;;8.04;38.90
14383;BME280;7275;50.328;8.720;2023-02-14T02:49:23;101699.81;;;8.05;39.02
14383;BME280;7275;50.328;8.720;2023-02-14T02:52:15;101701.56;;;8.04;38.92
14383;BME280;7275;50.328;8.720;2023-02-14T02:55:07;101700.66;;;8.05;38.89
14383;BME280;7275;50.328;8.720;2023-02-14T02:57:40;101694.53;;;8.08;38.69
14383;BME280;7275;50.328;8.720;2023-02-14T03:00:11;101694.53;;;8.08;38.79
14383;BME280;7275;50.328;8.720;2023-02-14T03:02:41;101700.69;;;8.08;38.46
14383;BME280;7275;50.328;8.720;2023-02-14T03:05:28;101698.91;;;8.06;38.43
14383;BME280;7275;50.328;8.720;2023-02-14T03:07:57;101704.19;;;8.06;38.35
14383;BME280;7275;50.328;8.720;2023-02-14T03:10:27;101705.94;;;8.04;38.36
14383;BME280;7275;50.328;8.720;2023-02-14T03:13:11;101709.47;;;8.03;38.42
14383;BME280;7275;50.328;8.720;2023-02-14T03:15:50;101705.91;;;7.99;38.37
14383;BME280;7275;50.328;8.720;2023-02-14T03:18:33;101703.28;;;7.96;38.37
14383;BME280;7275;50.328;8.720;2023-02-14T03:21:14;101701.47;;;7.91;38.34
14383;BME280;7275;50.328;8.720;2023-02-14T03:23:50;101703.22;;;7.86;38.31
14383;BME280;7275;50.328;8.720;2023-02-14T03:26:25;101706.69;;;7.83;38.48
14383;BME280;7275;50.328;8.720;2023-02-14T03:28:58;101704.94;;;7.81;38.40
14383;BME280;7275;50.328;8.720;2023-02-14T03:31:33;101691.75;;;7.78;38.57
14383;BME280;7275;50.328;8.720;2023-02-14T03:34:07;101692.63;;;7.77;38.50
14383;BME280;7275;50.328;8.720;2023-02-14T03:36:40;101694.38;;;7.73;38.55
14383;BME280;7275;50.328;8.720;2023-02-14T03:39:16;101700.47;;;7.69;38.71
14383;BME280;7275;50.328;8.720;2023-02-14T03:41:51;101697.81;;;7.66;38.58
14383;BME280;7275;50.328;8.720;2023-02-14T03:44:22;101697.81;;;7.63;38.60
14383;BME280;7275;50.328;8.720;2023-02-14T03:46:57;101697.78;;;7.62;38.95
14383;BME280;7275;50.328;8.720;2023-02-14T03:49:29;101700.41;;;7.59;38.80
14383;BME280;7275;50.328;8.720;2023-02-14T03:52:01;101698.63;;;7.56;38.92
14383;BME280;7275;50.328;8.720;2023-02-14T03:54:32;101703.91;;;7.56;38.92
14383;BME280;7275;50.328;8.720;2023-02-14T03:57:04;101708.28;;;7.57;39.06
14383;BME280;7275;50.328;8.720;2023-02-14T03:59:34;101709.16;;;7.56;39.24
14383;BME280;7275;50.328;8.720;2023-02-14T04:02:05;101710.91;;;7.56;38.78
14383;BME280;7275;50.328;8.720;2023-02-14T04:04:36;101704.75;;;7.54;38.98
14383;BME280;7275;50.328;8.720;2023-02-14T04:07:10;101710.00;;;7.52;38.87
14383;BME280;7275;50.328;8.720;2023-02-14T04:09:39;101713.50;;;7.50;38.93
14383;BME280;7275;50.328;8.720;2023-02-14T04:12:07;101716.13;;;7.50;38.88
14383;BME280;7275;50.328;8.720;2023-02-14T04:14:35;101705.59;;;7.50;39.00
14383;BME280;7275;50.328;8.720;2023-02-14T04:17:03;101710.84;;;7.51;39.19
14383;BME280;7275;50.328;8.720;2023-02-14T04:19:48;101712.63;;;7.51;39.05
14383;BME280;7275;50.328;8.720;2023-02-14T04:22:16;101701.22;;;7.50;39.21
14383;BME280;7275;50.328;8.720;2023-02-14T04:24:45;101705.59;;;7.51;39.10
14383;BME280;7275;50.328;8.720;2023-02-14T04:27:13;101709.97;;;7.49;39.15
14383;BME280;7275;50.328;8.720;2023-02-14T04:29:42;101706.44;;;7.46;39.32
14383;BME280;7275;50.328;8.720;2023-02-14T04:32:11;101706.44;;;7.46;39.46
14383;BME280;7275;50.328;8.720;2023-02-14T04:34:40;101708.22;;;7.47;39.30
14383;BME280;7275;50.328;8.720;2023-02-14T04:37:08;101715.22;;;7.49;39.30
14383;BME280;7275;50.328;8.720;2023-02-14T04:39:35;101712.63;;;7.54;39.08
14383;BME280;7275;50.328;8.720;2023-02-14T04:42:05;101710.94;;;7.59;39.32
14383;BME280;7275;50.328;8.720;2023-02-14T04:44:33;101705.72;;;7.65;39.17
14383;BME280;7275;50.328;8.720;2023-02-14T04:47:00;101710.13;;;7.70;39.28
14383;BME280;7275;50.328;8.720;2023-02-14T04:49:28;101711.94;;;7.77;39.45
14383;BME280;7275;50.328;8.720;2023-02-14T04:51:55;101716.34;;;7.84;39.29
14383;BME280;7275;50.328;8.720;2023-02-14T04:54:23;101719.03;;;7.92;39.30
14383;BME280;7275;50.328;8.720;2023-02-14T04:56:51;101708.53;;;7.98;39.54
14383;BME280;7275;50.328;8.720;2023-02-14T04:59:20;101710.31;;;8.03;39.50
14383;BME280;7275;50.328;8.720;2023-02-14T05:01:50;101706.84;;;8.09;39.67
14383;BME280;7275;50.328;8.720;2023-02-14T05:04:18;101712.16;;;8.15;39.88
14383;BME280;7275;50.328;8.720;2023-02-14T05:06:46;101710.41;;;8.19;39.82
14383;BME280;7275;50.328;8.720;2023-02-14T05:09:13;101710.41;;;8.19;40.18
14383;BME280;7275;50.328;8.720;2023-02-14T05:11:41;101715.66;;;8.19;40.27
14383;BME280;7275;50.328;8.720;2023-02-14T05:14:09;101715.63;;;8.14;40.22
14383;BME280;7275;50.328;8.720;2023-02-14T05:16:37;101708.59;;;8.10;40.65
14383;BME280;7275;50.328;8.720;2023-02-14T05:19:05;101712.97;;;8.08;40.75
14383;BME280;7275;50.328;8.720;2023-02-14T05:21:33;101705.94;;;8.04;40.69
14383;BME280;7275;50.328;8.720;2023-02-14T05:24:00;101715.59;;;8.03;40.76
14383;BME280;7275;50.328;8.720;2023-02-14T05:26:28;101714.72;;;8.03;40.82
14383;BME280;7275;50.328;8.720;2023-02-14T05:28:56;101710.31;;;8.00;40.92
14383;BME280;7275;50.328;8.720;2023-02-14T05:31:24;101714.66;;;7.97;41.01
14383;BME280;7275;50.328;8.720;2023-02-14T05:33:53;101723.44;;;7.91;41.09
14383;BME280;7275;50.328;8.720;2023-02-14T05:36:20;101720.75;;;7.87;41.07
14383;BME280;7275;50.328;8.720;2023-02-14T05:38:48;101726.88;;;7.84;41.10
14383;BME280;7275;50.328;8.720;2023-02-14T05:41:16;101720.72;;;7.81;41.10
14383;BME280;7275;50.328;8.720;2023-02-14T05:43:43;101730.38;;;7.79;41.33
14383;BME280;7275;50.328;8.720;2023-02-14T05:46:11;101732.09;;;7.74;41.31
14383;BME280;7275;50.328;8.720;2023-02-14T05:48:38;101734.72;;;7.72;41.35
14383;BME280;7275;50.328;8.720;2023-02-14T05:51:09;101733.81;;;7.67;41.76
14383;BME280;7275;50.328;8.720;2023-02-14T05:53:37;101730.25;;;7.64;41.70
14383;BME280;7275;50.328;8.720;2023-02-14T05:56:05;101731.13;;;7.63;41.61
14383;BME280;7275;50.328;8.720;2023-02-14T05:58:32;101729.34;;;7.60;41.95
14383;BME280;7275;50.328;8.720;2023-02-14T06:01:00;101734.63;;;7.60;41.92
14383;BME280;7275;50.328;8.720;2023-02-14T06:03:28;101734.63;;;7.60;42.11
14383;BME280;7275;50.328;8.720;2023-02-14T06:05:55;101734.59;;;7.57;42.19
14383;BME280;7275;50.328;8.720;2023-02-14T06:08:24;101735.47;;;7.56;42.25
14383;BME280;7275;50.328;8.720;2023-02-14T06:10:52;101739.84;;;7.53;42.15
14383;BME280;7275;50.328;8.720;2023-02-14T06:13:20;101735.44;;;7.52;42.05
14383;BME280;7275;50.328;8.720;2023-02-14T06:15:47;101749.47;;;7.52;42.58
14383;BME280;7275;50.328;8.720;2023-02-14T06:18:15;101739.81;;;7.50;42.30
14383;BME280;7275;50.328;8.720;2023-02-14T06:20:43;101743.31;;;7.50;42.70
14383;BME280;7275;50.328;8.720;2023-02-14T06:23:10;101736.28;;;7.46;42.68
14383;BME280;7275;50.328;8.720;2023-02-14T06:25:39;101736.28;;;7.45;42.68
14383;BME280;7275;50.328;8.720;2023-02-14T06:28:07;101737.13;;;7.44;42.70
14383;BME280;7275;50.328;8.720;2023-02-14T06:30:34;101735.38;;;7.44;42.89
14383;BME280;7275;50.328;8.720;2023-02-14T06:33:02;101736.28;;;7.45;42.99
14383;BME280;7275;50.328;8.720;2023-02-14T06:35:30;101742.41;;;7.45;43.09
14383;BME280;7275;50.328;8.720;2023-02-14T06:37:58;101742.41;;;7.45;43.16
14383;BME280;7275;50.328;8.720;2023-02-14T06:40:25;101740.66;;;7.47;43.00
14383;BME280;7275;50.328;8.720;2023-02-14T06:42:54;101738.91;;;7.46;43.13
14383;BME280;7275;50.328;8.720;2023-02-14T06:45:22;101746.81;;;7.46;42.70
14383;BME280;7275;50.328;8.720;2023-02-14T06:47:49;101740.66;;;7.46;43.01
14383;BME280;7275;50.328;8.720;2023-02-14T06:50:17;101749.38;;;7.43;43.08
14383;BME280;7275;50.328;8.720;2023-02-14T06:52:44;101743.28;;;7.44;43.21
14383;BME280;7275;50.328;8.720;2023-02-14T06:55:12;101738.91;;;7.46;43.07
14383;BME280;7275;50.328;8.720;2023-02-14T06:57:40;101733.69;;;7.51;43.29
14383;BME280;7275;50.328;8.720;2023-02-14T07:00:10;101726.69;;;7.56;43.10
14383;BME280;7275;50.328;8.720;2023-02-14T07:02:40;101735.50;;;7.61;43.09
14383;BME280;7275;50.328;8.720;2023-02-14T07:05:08;101729.41;;;7.65;43.17
14383;BME280;7275;50.328;8.720;2023-02-14T07:07:35;101727.66;;;7.68;43.10
14383;BME280;7275;50.328;8.720;2023-02-14T07:10:04;101725.06;;;7.74;43.08
14383;BME280;7275;50.328;8.720;2023-02-14T07:12:32;101728.59;;;7.75;43.20
14383;BME280;7275;50.328;8.720;2023-02-14T07:15:00;101726.84;;;7.74;43.04
14383;BME280;7275;50.328;8.720;2023-02-14T07:17:29;101731.22;;;7.73;42.97
14383;BME280;7275;50.328;8.720;2023-02-14T07:19:56;101732.06;;;7.72;43.23
14383;BME280;7275;50.328;8.720;2023-02-14T07:22:24;101732.09;;;7.74;43.19
14383;BME280;7275;50.328;8.720;2023-02-14T07:24:51;101736.53;;;7.78;43.29
14383;BME280;7275;50.328;8.720;2023-02-14T07:27:19;101730.38;;;7.77;43.45
14383;BME280;7275;50.328;8.720;2023-02-14T07:29:47;101733.88;;;7.79;43.41
14383;BME280;7275;50.328;8.720;2023-02-14T07:32:14;101739.16;;;7.81;43.17
14383;BME280;7275;50.328;8.720;2023-02-14T07:34:43;101734.78;;;7.80;43.21
14383;BME280;7275;50.328;8.720;2023-02-14T07:37:11;101737.38;;;7.77;43.31
14383;BME280;7275;50.328;8.720;2023-02-14T07:39:39;101725.94;;;7.76;43.33
14383;BME280;7275;50.328;8.720;2023-02-14T07:42:06;101729.50;;;7.80;43.30
14383;BME280;7275;50.328;8.720;2023-02-14T07:44:34;101727.72;;;7.80;43.14
14383;BME280;7275;50.328;8.720;2023-02-14T07:47:04;101732.16;;;7.84;43.36
14383;BME280;7275;50.328;8.720;2023-02-14T07:49:32;101733.03;;;7.86;43.38
14383;BME280;7275;50.328;8.720;2023-02-14T07:52:02;101725.13;;;7.86;43.57
14383;BME280;7275;50.328;8.720;2023-02-14T07:54:30;101731.28;;;7.87;43.38
14383;BME280;7275;50.328;8.720;2023-02-14T07:56:58;101729.53;;;7.87;43.55
14383;BME280;7275;50.328;8.720;2023-02-14T07:59:25;101722.53;;;7.89;43.62
14383;BME280;7275;50.328;8.720;2023-02-14T08:01:53;101719.91;;;7.89;43.58
14383;BME280;7275;50.328;8.720;2023-02-14T08:04:20;101720.81;;;7.94;43.59
14383;BME280;7275;50.328;8.720;2023-02-14T08:06:51;101712.03;;;7.97;43.62
14383;BME280;7275;50.328;8.720;2023-02-14T08:09:20;101718.19;;;7.99;43.85
14383;BME280;7275;50.328;8.720;2023-02-14T08:11:51;101719.06;;;8.01;43.66
14383;BME280;7275;50.328;8.720;2023-02-14T08:14:37;101718.19;;;7.99;43.69
14383;BME280;7275;50.328;8.720;2023-02-14T08:17:05;101727.88;;;8.01;43.84
14383;BME280;7275;50.328;8.720;2023-02-14T08:19:33;101720.84;;;8.02;43.70
14383;BME280;7275;50.328;8.720;2023-02-14T08:22:01;101717.34;;;8.01;43.79
14383;BME280;7275;50.328;8.720;2023-02-14T08:24:30;101705.91;;;7.99;43.88
14383;BME280;7275;50.328;8.720;2023-02-14T08:26:58;101722.59;;;8.00;44.01
14383;BME280;7275;50.328;8.720;2023-02-14T08:29:26;101726.09;;;7.99;43.97
14383;BME280;7275;50.328;8.720;2023-02-14T08:31:53;101723.44;;;7.99;43.90
14383;BME280;7275;50.328;8.720;2023-02-14T08:34:21;101717.34;;;7.98;44.13
14383;BME280;7275;50.328;8.720;2023-02-14T08:36:49;101720.81;;;7.99;44.03
14383;BME280;7275;50.328;8.720;2023-02-14T08:39:17;101717.34;;;8.00;44.14
14383;BME280;7275;50.328;8.720;2023-02-14T08:41:46;101721.75;;;8.02;44.11
14383;BME280;7275;50.328;8.720;2023-02-14T08:44:13;101721.75;;;8.04;44.27
14383;BME280;7275;50.328;8.720;2023-02-14T08:46:41;101717.38;;;8.03;44.20
14383;BME280;7275;50.328;8.720;2023-02-14T08:49:09;101715.59;;;8.02;44.11
14383;BME280;7275;50.328;8.720;2023-02-14T08:51:37;101710.31;;;8.00;44.09
14383;BME280;7275;50.328;8.720;2023-02-14T08:54:05;101720.00;;;8.03;44.27
14383;BME280;7275;50.328;8.720;2023-02-14T08:56:32;101721.75;;;8.04;44.34
14383;BME280;7275;50.328;8.720;2023-02-14T08:59:03;101719.09;;;8.04;44.29
14383;BME280;7275;50.328;8.720;2023-02-14T09:01:30;101716.47;;;8.04;44.35
14383;BME280;7275;50.328;8.720;2023-02-14T09:03:58;101719.09;;;8.04;44.22
14383;BME280;7275;50.328;8.720;2023-02-14T09:06:27;101722.63;;;8.04;44.43
14383;BME280;7275;50.328;8.720;2023-02-14T09:08:55;101725.25;;;8.03;44.62
14383;BME280;7275;50.328;8.720;2023-02-14T09:11:23;101707.66;;;7.97;44.19
14383;BME280;7275;50.328;8.720;2023-02-14T09:13:51;101712.06;;;8.01;44.25
14383;BME280;7275;50.328;8.720;2023-02-14T09:16:21;101712.94;;;8.03;44.48
14383;BME280;7275;50.328;8.720;2023-02-14T09:18:50;101709.47;;;8.03;44.46
14383;BME280;7275;50.328;8.720;2023-02-14T09:21:21;101711.22;;;8.04;44.47
14383;BME280;7275;50.328;8.720;2023-02-14T09:23:49;101712.09;;;8.03;44.60
14383;BME280;7275;50.328;8.720;2023-02-14T09:26:17;101710.31;;;8.02;44.53
14383;BME280;7275;50.328;8.720;2023-02-14T09:28:45;101707.69;;;8.02;44.44
14383;BME280;7275;50.328;8.720;2023-02-14T09:31:15;101710.31;;;8.03;44.60
14383;BME280;7275;50.328;8.720;2023-02-14T09:33:46;101716.50;;;8.07;44.56
14383;BME280;7275;50.328;8.720;2023-02-14T09:36:14;101708.59;;;8.12;44.55
14383;BME280;7275;50.328;8.720;2023-02-14T09:39:00;101707.78;;;8.17;44.44
14383;BME280;7275;50.328;8.720;2023-02-14T09:41:44;101713.03;;;8.20;44.61
14383;BME280;7275;50.328;8.720;2023-02-14T09:44:23;101712.19;;;8.20;44.44
14383;BME280;7275;50.328;8.720;2023-02-14T09:46:56;101718.31;;;8.19;44.59
14383;BME280;7275;50.328;8.720;2023-02-14T09:49:31;101716.56;;;8.22;44.61
14383;BME280;7275;50.328;8.720;2023-02-14T09:52:02;101727.16;;;8.25;44.44
14383;BME280;7275;50.328;8.720;2023-02-14T09:54:32;101721.00;;;8.26;44.41
14383;BME280;7275;50.328;8.720;2023-02-14T09:57:05;101722.78;;;8.26;44.48
14383;BME280;7275;50.328;8.720;2023-02-14T09:59:39;101720.97;;;8.23;44.45
14383;BME280;7275;50.328;8.720;2023-02-14T10:02:21;101711.31;;;8.24;44.89
14383;BME280;7275;50.328;8.720;2023-02-14T10:04:59;101715.72;;;8.26;44.54
14383;BME280;7275;50.328;8.720;2023-02-14T10:07:38;101712.22;;;8.29;44.70
14383;BME280;7275;50.328;8.720;2023-02-14T10:10:13;101715.75;;;8.29;44.49
14383;BME280;7275;50.328;8.720;2023-02-14T10:12:45;101721.06;;;8.32;44.60
14383;BME280;7275;50.328;8.720;2023-02-14T10:15:18;101713.16;;;8.34;44.65
14383;BME280;7275;50.328;8.720;2023-02-14T10:17:50;101717.56;;;8.36;44.70
14383;BME280;7275;50.328;8.720;2023-02-14T10:20:24;101718.44;;;8.40;44.89
14383;BME280;7275;50.328;8.720;2023-02-14T10:22:59;101721.09;;;8.44;44.55
14383;BME280;7275;50.328;8.720;2023-02-14T10:25:33;101714.97;;;8.48;44.68
14383;BME280;7275;50.328;8.720;2023-02-14T10:28:08;101722.88;;;8.54;44.53
14383;BME280;7275;50.328;8.720;2023-02-14T10:30:47;101721.16;;;8.62;44.74
14383;BME280;7275;50.328;8.720;2023-02-14T10:33:18;101718.53;;;8.67;44.57
14383;BME280;7275;50.328;8.720;2023-02-14T10:35:51;101721.16;;;8.68;44.71
14383;BME280;7275;50.328;8.720;2023-02-14T10:38:30;101712.34;;;8.68;44.75
14383;BME280;7275;50.328;8.720;2023-02-14T10:41:19;101713.25;;;8.70;44.72
14383;BME280;7275;50.328;8.720;2023-02-14T10:43:53;101709.75;;;8.71;44.65
14383;BME280;7275;50.328;8.720;2023-02-14T10:46:32;101716.78;;;8.73;44.70
14383;BME280;7275;50.328;8.720;2023-02-14T10:49:07;101711.50;;;8.73;44.58
14383;BME280;7275;50.328;8.720;2023-02-14T10:51:44;101708.00;;;8.76;44.68
14383;BME280;7275;50.328;8.720;2023-02-14T10:54:18;101702.72;;;8.79;44.55
14383;BME280;7275;50.328;8.720;2023-02-14T10:56:50;101696.59;;;8.81;44.45
14383;BME280;7275;50.328;8.720;2023-02-14T10:59:24;101695.72;;;8.84;44.55
14383;BME280;7275;50.328;8.720;2023-02-14T11:01:55;101693.97;;;8.86;44.40
14383;BME280;7275;50.328;8.720;2023-02-14T11:04:25;101692.19;;;8.90;44.40
14383;BME280;7275;50.328;8.720;2023-02-14T11:06:55;101693.97;;;8.94;44.36
14383;BME280;7275;50.328;8.720;2023-02-14T11:09:23;101680.78;;;8.92;44.44
14383;BME280;7275;50.328;8.720;2023-02-14T11:11:52;101679.91;;;8.98;44.44
14383;BME280;7275;50.328;8.720;2023-02-14T11:14:24;101678.13;;;9.00;44.62
14383;BME280;7275;50.328;8.720;2023-02-14T11:16:54;101678.16;;;9.03;44.54
14383;BME280;7275;50.328;8.720;2023-02-14T11:19:24;101672.88;;;9.06;44.63
14383;BME280;7275;50.328;8.720;2023-02-14T11:21:55;101664.94;;;9.12;44.34
14383;BME280;7275;50.328;8.720;2023-02-14T11:24:31;101669.38;;;9.17;44.75
14383;BME280;7275;50.328;8.720;2023-02-14T11:27:02;101663.22;;;9.20;44.53
14383;BME280;7275;50.328;8.720;2023-02-14T11:29:33;101664.97;;;9.25;44.39
14383;BME280;7275;50.328;8.720;2023-02-14T11:32:07;101658.78;;;9.25;44.48
14383;BME280;7275;50.328;8.720;2023-02-14T11:34:37;101661.44;;;9.31;44.62
14383;BME280;7275;50.328;8.720;2023-02-14T11:37:24;101662.31;;;9.36;44.70
14383;BME280;7275;50.328;8.720;2023-02-14T11:39:54;101655.28;;;9.38;44.37
14383;BME280;7275;50.328;8.720;2023-02-14T11:42:36;101648.22;;;9.43;44.63
14383;BME280;7275;50.328;8.720;2023-02-14T11:45:05;101655.25;;;9.44;44.54
14383;BME280;7275;50.328;8.720;2023-02-14T11:47:35;101651.72;;;9.48;44.50
14383;BME280;7275;50.328;8.720;2023-02-14T11:50:20;101649.97;;;9.53;44.45
14383;BME280;7275;50.328;8.720;2023-02-14T11:52:54;101638.53;;;9.49;44.23
14383;BME280;7275;50.328;8.720;2023-02-14T11:55:25;101645.56;;;9.53;44.62
14383;BME280;7275;50.328;8.720;2023-02-14T11:57:54;101640.28;;;9.56;44.59
14383;BME280;7275;50.328;8.720;2023-02-14T12:00:23;101635.88;;;9.63;44.26
14383;BME280;7275;50.328;8.720;2023-02-14T12:02:52;101627.94;;;9.69;44.25
14383;BME280;7275;50.328;8.720;2023-02-14T12:05:25;101629.63;;;9.81;44.51
14383;BME280;7275;50.328;8.720;2023-02-14T12:07:56;101623.44;;;9.89;43.94
14383;BME280;7275;50.328;8.720;2023-02-14T12:10:26;101625.19;;;9.96;44.05
14383;BME280;7275;50.328;8.720;2023-02-14T12:12:59;101623.41;;;10.03;44.30
14383;BME280;7275;50.328;8.720;2023-02-14T12:15:32;101618.09;;;10.12;44.03
14383;BME280;7275;50.328;8.720;2023-02-14T12:18:34;101612.78;;;10.19;43.85
14383;BME280;7275;50.328;8.720;2023-02-14T12:21:12;101607.47;;;10.25;44.10
14383;BME280;7275;50.328;8.720;2023-02-14T12:23:51;101604.78;;;10.33;43.64
14383;BME280;7275;50.328;8.720;2023-02-14T12:26:25;101601.25;;;10.38;43.78
14383;BME280;7275;50.328;8.720;2023-02-14T12:29:01;101601.25;;;10.38;43.73
14383;BME280;7275;50.328;8.720;2023-02-14T12:31:30;101606.53;;;10.38;43.76
14383;BME280;7275;50.328;8.720;2023-02-14T12:33:58;101597.69;;;10.39;43.96
14383;BME280;7275;50.328;8.720;2023-02-14T12:36:39;101594.09;;;10.50;43.71
14383;BME280;7275;50.328;8.720;2023-02-14T12:39:19;101589.69;;;10.50;43.68
14383;BME280;7275;50.328;8.720;2023-02-14T12:41:58;101587.06;;;10.49;43.50
14383;BME280;7275;50.328;8.720;2023-02-14T12:44:39;101584.41;;;10.49;43.41
14383;BME280;7275;50.328;8.720;2023-02-14T12:47:17;101595.91;;;10.43;43.47
14383;BME280;7275;50.328;8.720;2023-02-14T12:50:17;101583.59;;;10.37;43.57
14383;BME280;7275;50.328;8.720;2023-02-14T12:53:01;101572.19;;;10.34;43.99
14383;BME280;7275;50.328;8.720;2023-02-14T12:55:40;101569.47;;;10.44;44.07
14383;BME280;7275;50.328;8.720;2023-02-14T12:58:20;101564.09;;;10.54;43.96
14383;BME280;7275;50.328;8.720;2023-02-14T13:00:58;101557.03;;;10.59;43.43
14383;BME280;7275;50.328;8.720;2023-02-14T13:03:39;101555.19;;;10.67;43.82
14383;BME280;7275;50.328;8.720;2023-02-14T13:06:16;101546.31;;;10.72;43.75
14383;BME280;7275;50.328;8.720;2023-02-14T13:09:04;101541.88;;;10.80;43.59
14383;BME280;7275;50.328;8.720;2023-02-14T13:11:47;101541.84;;;10.79;43.59
14383;BME280;7275;50.328;8.720;2023-02-14T13:14:30;101543.63;;;10.77;43.50
14383;BME280;7275;50.328;8.720;2023-02-14T13:17:11;101541.00;;;10.77;43.26
14383;BME280;7275;50.328;8.720;2023-02-14T13:19:49;101540.09;;;10.79;43.21
14383;BME280;7275;50.328;8.720;2023-02-14T13:22:21;101533.84;;;10.85;43.23
14383;BME280;7275;50.328;8.720;2023-02-14T13:24:54;101532.06;;;10.87;43.15
14383;BME280;7275;50.328;8.720;2023-02-14T13:27:26;101527.72;;;10.83;43.35
14383;BME280;7275;50.328;8.720;2023-02-14T13:29:58;101525.09;;;10.81;43.51
14383;BME280;7275;50.328;8.720;2023-02-14T13:32:29;101521.56;;;10.81;43.27
14383;BME280;7275;50.328;8.720;2023-02-14T13:34:59;101515.41;;;10.79;43.34
14383;BME280;7275;50.328;8.720;2023-02-14T13:37:28;101518.94;;;10.79;43.28
14383;BME280;7275;50.328;8.720;2023-02-14T13:39:58;101512.75;;;10.79;43.47